Time;durP1;ratioP1;P1;durP2;ratioP2;P2;SDS_P1;SDS_P2;PMS_P1;PMS_P2;Temp;Humidity;BMP_temperature;BMP_pressure;BME280_temperature;BME280_humidity;BME280_pressure;Samples;Min_cycle;Max_cycle;Signal;HPM_P1;HPM_P2
2019/10/22 00:00:59;;;;;;;24.45;21.4;;;;;;;12.06;100;95772.97;;;;
2019/10/22 00:02:00;;;;;;;24.45;21.4;;;;;;;12.06;100;95772.97;;;;
2019/10/22 00:03:02;;;;;;;24.45;21.4;;;;;;;12.06;100;95772.97;;;;
2019/10/22 00:04:03;;;;;;;24.45;21.4;;;;;;;12.06;100;95772.97;;;;
2019/10/22 00:05:06;;;;;;;24.45;21.4;;;;;;;12.06;100;95772.97;;;;
2019/10/22 00:06:09;;;;;;;26.7;21.95;;;;;;;12;100;95789.2;;;;
2019/10/22 00:07:11;;;;;;;26.7;21.95;;;;;;;12;100;95789.2;;;;
2019/10/22 00:08:12;;;;;;;26.7;21.95;;;;;;;12;100;95789.2;;;;
2019/10/22 00:09:13;;;;;;;26.7;21.95;;;;;;;12;100;95789.2;;;;
2019/10/22 00:10:15;;;;;;;26.7;21.95;;;;;;;12;100;95789.2;;;;
2019/10/22 00:11:17;;;;;;;26.7;21.95;;;;;;;12;100;95789.2;;;;
2019/10/22 00:12:18;;;;;;;26.7;21.95;;;;;;;12;100;95789.2;;;;
2019/10/22 00:13:19;;;;;;;26.7;21.95;;;;;;;12;100;95789.2;;;;
2019/10/22 00:14:21;;;;;;;26.7;21.95;;;;;;;12;100;95789.2;;;;
2019/10/22 00:15:22;;;;;;;26.7;21.95;;;;;;;12;100;95789.2;;;;
2019/10/22 00:16:23;;;;;;;26.7;21.95;;;;;;;12;100;95789.2;;;;
2019/10/22 00:17:25;;;;;;;24.8;20.65;;;;;;;12;100;95785.97;;;;
2019/10/22 00:18:26;;;;;;;24.8;20.65;;;;;;;12;100;95785.97;;;;
2019/10/22 00:19:27;;;;;;;24.8;20.65;;;;;;;12;100;95785.97;;;;
2019/10/22 00:20:28;;;;;;;24.8;20.65;;;;;;;12;100;95785.97;;;;
2019/10/22 00:21:29;;;;;;;24.8;20.65;;;;;;;12;100;95785.97;;;;
2019/10/22 00:22:30;;;;;;;24.8;20.65;;;;;;;12;100;95785.97;;;;
2019/10/22 00:23:31;;;;;;;24.8;20.65;;;;;;;12;100;95785.97;;;;
2019/10/22 00:24:33;;;;;;;24.8;20.65;;;;;;;12;100;95785.97;;;;
2019/10/22 00:25:34;;;;;;;24.8;20.65;;;;;;;12;100;95785.97;;;;
2019/10/22 00:26:35;;;;;;;24.8;20.65;;;;;;;12;100;95785.97;;;;
2019/10/22 00:27:36;;;;;;;28.5;22.65;;;;;;;11.94;100;95788.79;;;;
2019/10/22 00:28:38;;;;;;;28.5;22.65;;;;;;;11.94;100;95788.79;;;;
2019/10/22 00:29:39;;;;;;;28.5;22.65;;;;;;;11.94;100;95788.79;;;;
2019/10/22 00:30:40;;;;;;;28.5;22.65;;;;;;;11.94;100;95788.79;;;;
2019/10/22 00:31:41;;;;;;;28.5;22.65;;;;;;;11.94;100;95788.79;;;;
2019/10/22 00:32:42;;;;;;;28.5;22.65;;;;;;;11.94;100;95788.79;;;;
2019/10/22 00:33:43;;;;;;;28.5;22.65;;;;;;;11.94;100;95788.79;;;;
2019/10/22 00:34:45;;;;;;;28.5;22.65;;;;;;;11.94;100;95788.79;;;;
2019/10/22 00:35:46;;;;;;;28.5;22.65;;;;;;;11.94;100;95788.79;;;;
2019/10/22 00:36:47;;;;;;;28.5;22.65;;;;;;;11.94;100;95788.79;;;;
2019/10/22 00:37:48;;;;;;;28.5;22.65;;;;;;;11.94;100;95788.79;;;;
2019/10/22 00:38:49;;;;;;;27.4;23;;;;;;;11.93;100;95779.83;;;;
2019/10/22 00:39:50;;;;;;;27.4;23;;;;;;;11.93;100;95779.83;;;;
2019/10/22 00:40:51;;;;;;;27.4;23;;;;;;;11.93;100;95779.83;;;;
2019/10/22 00:41:52;;;;;;;27.4;23;;;;;;;11.93;100;95779.83;;;;
2019/10/22 00:42:54;;;;;;;27.4;23;;;;;;;11.93;100;95779.83;;;;
2019/10/22 00:43:55;;;;;;;27.4;23;;;;;;;11.93;100;95779.83;;;;
2019/10/22 00:44:56;;;;;;;27.4;23;;;;;;;11.93;100;95779.83;;;;
2019/10/22 00:45:57;;;;;;;27.4;23;;;;;;;11.93;100;95779.83;;;;
2019/10/22 00:46:58;;;;;;;27.4;23;;;;;;;11.93;100;95779.83;;;;
2019/10/22 00:47:59;;;;;;;27.4;23;;;;;;;11.93;100;95779.83;;;;
2019/10/22 00:49:00;;;;;;;27.85;22.55;;;;;;;11.85;100;95801;;;;
2019/10/22 00:50:02;;;;;;;27.85;22.55;;;;;;;11.85;100;95801;;;;
2019/10/22 00:51:04;;;;;;;27.85;22.55;;;;;;;11.85;100;95801;;;;
2019/10/22 00:52:05;;;;;;;27.85;22.55;;;;;;;11.85;100;95801;;;;
2019/10/22 00:53:06;;;;;;;27.85;22.55;;;;;;;11.85;100;95801;;;;
2019/10/22 00:54:07;;;;;;;27.85;22.55;;;;;;;11.85;100;95801;;;;
2019/10/22 00:55:08;;;;;;;27.85;22.55;;;;;;;11.85;100;95801;;;;
2019/10/22 00:56:10;;;;;;;27.85;22.55;;;;;;;11.85;100;95801;;;;
2019/10/22 00:57:11;;;;;;;27.85;22.55;;;;;;;11.85;100;95801;;;;
2019/10/22 00:58:12;;;;;;;27.85;22.55;;;;;;;11.85;100;95801;;;;
2019/10/22 00:59:13;;;;;;;27.8;23.6;;;;;;;11.82;100;95805.91;;;;
2019/10/22 01:00:15;;;;;;;27.8;23.6;;;;;;;11.82;100;95805.91;;;;
2019/10/22 01:01:16;;;;;;;27.8;23.6;;;;;;;11.82;100;95805.91;;;;
2019/10/22 01:02:17;;;;;;;27.8;23.6;;;;;;;11.82;100;95805.91;;;;
2019/10/22 01:03:18;;;;;;;27.8;23.6;;;;;;;11.82;100;95805.91;;;;
2019/10/22 01:04:19;;;;;;;27.8;23.6;;;;;;;11.82;100;95805.91;;;;
2019/10/22 01:05:21;;;;;;;27.8;23.6;;;;;;;11.82;100;95805.91;;;;
2019/10/22 01:06:22;;;;;;;27.8;23.6;;;;;;;11.82;100;95805.91;;;;
2019/10/22 01:07:23;;;;;;;27.8;23.6;;;;;;;11.82;100;95805.91;;;;
2019/10/22 01:08:24;;;;;;;27.8;23.6;;;;;;;11.82;100;95805.91;;;;
2019/10/22 01:09:25;;;;;;;27.8;23.6;;;;;;;11.82;100;95805.91;;;;
2019/10/22 01:10:26;;;;;;;27.9;22.9;;;;;;;11.73;100;95774.03;;;;
2019/10/22 01:11:28;;;;;;;27.9;22.9;;;;;;;11.73;100;95774.03;;;;
2019/10/22 01:12:29;;;;;;;27.9;22.9;;;;;;;11.73;100;95774.03;;;;
2019/10/22 01:13:30;;;;;;;27.9;22.9;;;;;;;11.73;100;95774.03;;;;
2019/10/22 01:14:31;;;;;;;27.9;22.9;;;;;;;11.73;100;95774.03;;;;
2019/10/22 01:15:33;;;;;;;27.9;22.9;;;;;;;11.73;100;95774.03;;;;
2019/10/22 01:16:34;;;;;;;27.9;22.9;;;;;;;11.73;100;95774.03;;;;
2019/10/22 01:17:35;;;;;;;27.9;22.9;;;;;;;11.73;100;95774.03;;;;
2019/10/22 01:18:36;;;;;;;27.9;22.9;;;;;;;11.73;100;95774.03;;;;
2019/10/22 01:19:37;;;;;;;27.9;22.9;;;;;;;11.73;100;95774.03;;;;
2019/10/22 01:20:39;;;;;;;28.8;22.2;;;;;;;11.69;100;95771.34;;;;
2019/10/22 01:21:40;;;;;;;28.8;22.2;;;;;;;11.69;100;95771.34;;;;
2019/10/22 01:22:41;;;;;;;28.8;22.2;;;;;;;11.69;100;95771.34;;;;
2019/10/22 01:23:42;;;;;;;28.8;22.2;;;;;;;11.69;100;95771.34;;;;
2019/10/22 01:24:44;;;;;;;28.8;22.2;;;;;;;11.69;100;95771.34;;;;
2019/10/22 01:25:45;;;;;;;28.8;22.2;;;;;;;11.69;100;95771.34;;;;
2019/10/22 01:26:46;;;;;;;28.8;22.2;;;;;;;11.69;100;95771.34;;;;
2019/10/22 01:27:48;;;;;;;28.8;22.2;;;;;;;11.69;100;95771.34;;;;
2019/10/22 01:28:49;;;;;;;28.8;22.2;;;;;;;11.69;100;95771.34;;;;
2019/10/22 01:29:50;;;;;;;28.8;22.2;;;;;;;11.69;100;95771.34;;;;
2019/10/22 01:30:51;;;;;;;28.8;22.2;;;;;;;11.69;100;95771.34;;;;
2019/10/22 01:31:52;;;;;;;32.55001;24.45;;;;;;;11.63;100;95773.19;;;;
2019/10/22 01:32:53;;;;;;;32.55001;24.45;;;;;;;11.63;100;95773.19;;;;
2019/10/22 01:33:54;;;;;;;32.55001;24.45;;;;;;;11.63;100;95773.19;;;;
2019/10/22 01:34:56;;;;;;;32.55001;24.45;;;;;;;11.63;100;95773.19;;;;
2019/10/22 01:35:57;;;;;;;32.55001;24.45;;;;;;;11.63;100;95773.19;;;;
2019/10/22 01:36:58;;;;;;;32.55001;24.45;;;;;;;11.63;100;95773.19;;;;
2019/10/22 01:37:59;;;;;;;32.55001;24.45;;;;;;;11.63;100;95773.19;;;;
2019/10/22 01:39:01;;;;;;;32.55001;24.45;;;;;;;11.63;100;95773.19;;;;
2019/10/22 01:40:05;;;;;;;32.55001;24.45;;;;;;;11.63;100;95773.19;;;;
2019/10/22 01:41:07;;;;;;;32.55001;24.45;;;;;;;11.63;100;95773.19;;;;
2019/10/22 01:42:08;;;;;;;34.25;25.2;;;;;;;11.66;100;95748;;;;
2019/10/22 01:43:09;;;;;;;34.25;25.2;;;;;;;11.66;100;95748;;;;
2019/10/22 01:44:10;;;;;;;34.25;25.2;;;;;;;11.66;100;95748;;;;
2019/10/22 01:45:11;;;;;;;34.25;25.2;;;;;;;11.66;100;95748;;;;
2019/10/22 01:46:13;;;;;;;34.25;25.2;;;;;;;11.66;100;95748;;;;
2019/10/22 01:47:14;;;;;;;34.25;25.2;;;;;;;11.66;100;95748;;;;
2019/10/22 01:48:15;;;;;;;34.25;25.2;;;;;;;11.66;100;95748;;;;
2019/10/22 01:49:16;;;;;;;34.25;25.2;;;;;;;11.66;100;95748;;;;
2019/10/22 01:50:17;;;;;;;34.25;25.2;;;;;;;11.66;100;95748;;;;
2019/10/22 01:51:19;;;;;;;34.25;25.2;;;;;;;11.66;100;95748;;;;
2019/10/22 01:52:21;;;;;;;30.9;24.5;;;;;;;11.56;100;95706.62;;;;
2019/10/22 01:53:22;;;;;;;30.9;24.5;;;;;;;11.56;100;95706.62;;;;
2019/10/22 01:54:23;;;;;;;30.9;24.5;;;;;;;11.56;100;95706.62;;;;
2019/10/22 01:55:25;;;;;;;30.9;24.5;;;;;;;11.56;100;95706.62;;;;
2019/10/22 01:56:26;;;;;;;30.9;24.5;;;;;;;11.56;100;95706.62;;;;
2019/10/22 01:57:27;;;;;;;30.9;24.5;;;;;;;11.56;100;95706.62;;;;
2019/10/22 01:58:28;;;;;;;30.9;24.5;;;;;;;11.56;100;95706.62;;;;
2019/10/22 01:59:30;;;;;;;30.9;24.5;;;;;;;11.56;100;95706.62;;;;
2019/10/22 02:00:31;;;;;;;30.9;24.5;;;;;;;11.56;100;95706.62;;;;
2019/10/22 02:01:32;;;;;;;30.9;24.5;;;;;;;11.56;100;95706.62;;;;
2019/10/22 02:02:33;;;;;;;30.9;24.5;;;;;;;11.56;100;95706.62;;;;
2019/10/22 02:03:35;;;;;;;30.3;23.05;;;;;;;11.43;100;95728.86;;;;
2019/10/22 02:04:36;;;;;;;30.3;23.05;;;;;;;11.43;100;95728.86;;;;
2019/10/22 02:05:37;;;;;;;30.3;23.05;;;;;;;11.43;100;95728.86;;;;
2019/10/22 02:06:38;;;;;;;30.3;23.05;;;;;;;11.43;100;95728.86;;;;
2019/10/22 02:07:40;;;;;;;30.3;23.05;;;;;;;11.43;100;95728.86;;;;
2019/10/22 02:08:41;;;;;;;30.3;23.05;;;;;;;11.43;100;95728.86;;;;
2019/10/22 02:09:42;;;;;;;30.3;23.05;;;;;;;11.43;100;95728.86;;;;
2019/10/22 02:10:43;;;;;;;30.3;23.05;;;;;;;11.43;100;95728.86;;;;
2019/10/22 02:11:45;;;;;;;30.3;23.05;;;;;;;11.43;100;95728.86;;;;
2019/10/22 02:12:46;;;;;;;30.3;23.05;;;;;;;11.43;100;95728.86;;;;
2019/10/22 02:13:47;;;;;;;28.5;21.7;;;;;;;11.19;100;95766.86;;;;
2019/10/22 02:14:48;;;;;;;28.5;21.7;;;;;;;11.19;100;95766.86;;;;
2019/10/22 02:15:50;;;;;;;28.5;21.7;;;;;;;11.19;100;95766.86;;;;
2019/10/22 02:16:51;;;;;;;28.5;21.7;;;;;;;11.19;100;95766.86;;;;
2019/10/22 02:17:52;;;;;;;28.5;21.7;;;;;;;11.19;100;95766.86;;;;
2019/10/22 02:18:53;;;;;;;28.5;21.7;;;;;;;11.19;100;95766.86;;;;
2019/10/22 02:19:55;;;;;;;28.5;21.7;;;;;;;11.19;100;95766.86;;;;
2019/10/22 02:20:56;;;;;;;28.5;21.7;;;;;;;11.19;100;95766.86;;;;
2019/10/22 02:21:57;;;;;;;28.5;21.7;;;;;;;11.19;100;95766.86;;;;
2019/10/22 02:22:59;;;;;;;28.5;21.7;;;;;;;11.19;100;95766.86;;;;
2019/10/22 02:24:00;;;;;;;28.15001;22.6;;;;;;;11.02;100;95763.94;;;;
2019/10/22 02:25:01;;;;;;;28.15001;22.6;;;;;;;11.02;100;95763.94;;;;
2019/10/22 02:26:03;;;;;;;28.15001;22.6;;;;;;;11.02;100;95763.94;;;;
2019/10/22 02:27:04;;;;;;;28.15001;22.6;;;;;;;11.02;100;95763.94;;;;
2019/10/22 02:28:05;;;;;;;28.15001;22.6;;;;;;;11.02;100;95763.94;;;;
2019/10/22 02:29:06;;;;;;;28.15001;22.6;;;;;;;11.02;100;95763.94;;;;
2019/10/22 02:30:08;;;;;;;28.15001;22.6;;;;;;;11.02;100;95763.94;;;;
2019/10/22 02:31:10;;;;;;;28.15001;22.6;;;;;;;11.02;100;95763.94;;;;
2019/10/22 02:32:11;;;;;;;28.15001;22.6;;;;;;;11.02;100;95763.94;;;;
2019/10/22 02:33:12;;;;;;;28.15001;22.6;;;;;;;11.02;100;95763.94;;;;
2019/10/22 02:34:13;;;;;;;28.15001;22.6;;;;;;;11.02;100;95763.94;;;;
2019/10/22 02:35:15;;;;;;;26.75;21.15;;;;;;;10.78;100;95761.72;;;;
2019/10/22 02:36:16;;;;;;;26.75;21.15;;;;;;;10.78;100;95761.72;;;;
2019/10/22 02:37:17;;;;;;;26.75;21.15;;;;;;;10.78;100;95761.72;;;;
2019/10/22 02:38:18;;;;;;;26.75;21.15;;;;;;;10.78;100;95761.72;;;;
2019/10/22 02:39:19;;;;;;;26.75;21.15;;;;;;;10.78;100;95761.72;;;;
2019/10/22 02:40:20;;;;;;;26.75;21.15;;;;;;;10.78;100;95761.72;;;;
2019/10/22 02:41:21;;;;;;;26.75;21.15;;;;;;;10.78;100;95761.72;;;;
2019/10/22 02:42:23;;;;;;;26.75;21.15;;;;;;;10.78;100;95761.72;;;;
2019/10/22 02:43:24;;;;;;;26.75;21.15;;;;;;;10.78;100;95761.72;;;;
2019/10/22 02:44:25;;;;;;;26.75;21.15;;;;;;;10.78;100;95761.72;;;;
2019/10/22 02:45:26;;;;;;;30.75;22.85;;;;;;;10.64;100;95770.61;;;;
2019/10/22 02:46:27;;;;;;;30.75;22.85;;;;;;;10.64;100;95770.61;;;;
2019/10/22 02:47:29;;;;;;;30.75;22.85;;;;;;;10.64;100;95770.61;;;;
2019/10/22 02:48:33;;;;;;;30.75;22.85;;;;;;;10.64;100;95770.61;;;;
2019/10/22 02:49:34;;;;;;;30.75;22.85;;;;;;;10.64;100;95770.61;;;;
2019/10/22 02:50:35;;;;;;;30.75;22.85;;;;;;;10.64;100;95770.61;;;;
2019/10/22 02:51:36;;;;;;;30.75;22.85;;;;;;;10.64;100;95770.61;;;;
2019/10/22 02:52:38;;;;;;;30.75;22.85;;;;;;;10.64;100;95770.61;;;;
2019/10/22 02:53:39;;;;;;;30.75;22.85;;;;;;;10.64;100;95770.61;;;;
2019/10/22 02:54:40;;;;;;;30.75;22.85;;;;;;;10.64;100;95770.61;;;;
2019/10/22 02:55:41;;;;;;;30.75;22.85;;;;;;;10.64;100;95770.61;;;;
2019/10/22 02:56:42;;;;;;;32.2;24.7;;;;;;;10.46;100;95779.94;;;;
2019/10/22 02:57:43;;;;;;;32.2;24.7;;;;;;;10.46;100;95779.94;;;;
2019/10/22 02:58:44;;;;;;;32.2;24.7;;;;;;;10.46;100;95779.94;;;;
2019/10/22 02:59:45;;;;;;;32.2;24.7;;;;;;;10.46;100;95779.94;;;;
2019/10/22 03:00:47;;;;;;;32.2;24.7;;;;;;;10.46;100;95779.94;;;;
2019/10/22 03:01:48;;;;;;;32.2;24.7;;;;;;;10.46;100;95779.94;;;;
2019/10/22 03:02:49;;;;;;;32.2;24.7;;;;;;;10.46;100;95779.94;;;;
2019/10/22 03:03:50;;;;;;;32.2;24.7;;;;;;;10.46;100;95779.94;;;;
2019/10/22 03:04:51;;;;;;;32.2;24.7;;;;;;;10.46;100;95779.94;;;;
2019/10/22 03:05:52;;;;;;;32.2;24.7;;;;;;;10.46;100;95779.94;;;;
2019/10/22 03:06:54;;;;;;;42.05;30.2;;;;;;;10.47;100;95791.03;;;;
2019/10/22 03:07:56;;;;;;;42.05;30.2;;;;;;;10.47;100;95791.03;;;;
2019/10/22 03:08:57;;;;;;;42.05;30.2;;;;;;;10.47;100;95791.03;;;;
2019/10/22 03:09:58;;;;;;;42.05;30.2;;;;;;;10.47;100;95791.03;;;;
2019/10/22 03:11:00;;;;;;;42.05;30.2;;;;;;;10.47;100;95791.03;;;;
2019/10/22 03:12:01;;;;;;;42.05;30.2;;;;;;;10.47;100;95791.03;;;;
2019/10/22 03:13:02;;;;;;;42.05;30.2;;;;;;;10.47;100;95791.03;;;;
2019/10/22 03:14:03;;;;;;;42.05;30.2;;;;;;;10.47;100;95791.03;;;;
2019/10/22 03:15:04;;;;;;;42.05;30.2;;;;;;;10.47;100;95791.03;;;;
2019/10/22 03:16:07;;;;;;;42.05;30.2;;;;;;;10.47;100;95791.03;;;;
2019/10/22 03:17:09;;;;;;;39.85;28.7;;;;;;;10.44;100;95813.08;;;;
2019/10/22 03:18:11;;;;;;;39.85;28.7;;;;;;;10.44;100;95813.08;;;;
2019/10/22 03:19:12;;;;;;;39.85;28.7;;;;;;;10.44;100;95813.08;;;;
2019/10/22 03:20:13;;;;;;;39.85;28.7;;;;;;;10.44;100;95813.08;;;;
2019/10/22 03:21:14;;;;;;;39.85;28.7;;;;;;;10.44;100;95813.08;;;;
2019/10/22 03:22:15;;;;;;;39.85;28.7;;;;;;;10.44;100;95813.08;;;;
2019/10/22 03:23:17;;;;;;;39.85;28.7;;;;;;;10.44;100;95813.08;;;;
2019/10/22 03:24:18;;;;;;;39.85;28.7;;;;;;;10.44;100;95813.08;;;;
2019/10/22 03:25:19;;;;;;;39.85;28.7;;;;;;;10.44;100;95813.08;;;;
2019/10/22 03:26:20;;;;;;;39.85;28.7;;;;;;;10.44;100;95813.08;;;;
2019/10/22 03:27:22;;;;;;;39.85;28.7;;;;;;;10.44;100;95813.08;;;;
2019/10/22 03:28:23;;;;;;;38.84999;27.9;;;;;;;10.41;100;95814.06;;;;
2019/10/22 03:29:24;;;;;;;38.84999;27.9;;;;;;;10.41;100;95814.06;;;;
2019/10/22 03:30:25;;;;;;;38.84999;27.9;;;;;;;10.41;100;95814.06;;;;
2019/10/22 03:31:26;;;;;;;38.84999;27.9;;;;;;;10.41;100;95814.06;;;;
2019/10/22 03:32:28;;;;;;;38.84999;27.9;;;;;;;10.41;100;95814.06;;;;
2019/10/22 03:33:29;;;;;;;38.84999;27.9;;;;;;;10.41;100;95814.06;;;;
2019/10/22 03:34:30;;;;;;;38.84999;27.9;;;;;;;10.41;100;95814.06;;;;
2019/10/22 03:35:31;;;;;;;38.84999;27.9;;;;;;;10.41;100;95814.06;;;;
2019/10/22 03:36:33;;;;;;;38.84999;27.9;;;;;;;10.41;100;95814.06;;;;
2019/10/22 03:37:34;;;;;;;38.84999;27.9;;;;;;;10.41;100;95814.06;;;;
2019/10/22 03:38:35;;;;;;;40.3;28;;;;;;;10.25;100;95802.34;;;;
2019/10/22 03:39:36;;;;;;;40.3;28;;;;;;;10.25;100;95802.34;;;;
2019/10/22 03:40:37;;;;;;;40.3;28;;;;;;;10.25;100;95802.34;;;;
2019/10/22 03:41:38;;;;;;;40.3;28;;;;;;;10.25;100;95802.34;;;;
2019/10/22 03:42:40;;;;;;;40.3;28;;;;;;;10.25;100;95802.34;;;;
2019/10/22 03:43:41;;;;;;;40.3;28;;;;;;;10.25;100;95802.34;;;;
2019/10/22 03:44:42;;;;;;;40.3;28;;;;;;;10.25;100;95802.34;;;;
2019/10/22 03:45:43;;;;;;;40.3;28;;;;;;;10.25;100;95802.34;;;;
2019/10/22 03:46:44;;;;;;;40.3;28;;;;;;;10.25;100;95802.34;;;;
2019/10/22 03:47:45;;;;;;;40.3;28;;;;;;;10.25;100;95802.34;;;;
2019/10/22 03:48:47;;;;;;;40.3;28;;;;;;;10.25;100;95802.34;;;;
2019/10/22 03:49:48;;;;;;;36.95;26.85;;;;;;;10.17;100;95802.73;;;;
2019/10/22 03:50:49;;;;;;;36.95;26.85;;;;;;;10.17;100;95802.73;;;;
2019/10/22 03:51:50;;;;;;;36.95;26.85;;;;;;;10.17;100;95802.73;;;;
2019/10/22 03:52:51;;;;;;;36.95;26.85;;;;;;;10.17;100;95802.73;;;;
2019/10/22 03:53:52;;;;;;;36.95;26.85;;;;;;;10.17;100;95802.73;;;;
2019/10/22 03:54:54;;;;;;;36.95;26.85;;;;;;;10.17;100;95802.73;;;;
2019/10/22 03:55:55;;;;;;;36.95;26.85;;;;;;;10.17;100;95802.73;;;;
2019/10/22 03:56:56;;;;;;;36.95;26.85;;;;;;;10.17;100;95802.73;;;;
2019/10/22 03:57:57;;;;;;;36.95;26.85;;;;;;;10.17;100;95802.73;;;;
2019/10/22 03:58:59;;;;;;;36.95;26.85;;;;;;;10.17;100;95802.73;;;;
2019/10/22 04:00:00;;;;;;;44.7;28.7;;;;;;;9.99;100;95820.59;;;;
2019/10/22 04:01:05;;;;;;;44.7;28.7;;;;;;;9.99;100;95820.59;;;;
2019/10/22 04:02:07;;;;;;;44.7;28.7;;;;;;;9.99;100;95820.59;;;;
2019/10/22 04:03:08;;;;;;;44.7;28.7;;;;;;;9.99;100;95820.59;;;;
2019/10/22 04:04:09;;;;;;;44.7;28.7;;;;;;;9.99;100;95820.59;;;;
2019/10/22 04:05:11;;;;;;;44.7;28.7;;;;;;;9.99;100;95820.59;;;;
2019/10/22 04:06:12;;;;;;;44.7;28.7;;;;;;;9.99;100;95820.59;;;;
2019/10/22 04:07:13;;;;;;;44.7;28.7;;;;;;;9.99;100;95820.59;;;;
2019/10/22 04:08:14;;;;;;;44.7;28.7;;;;;;;9.99;100;95820.59;;;;
2019/10/22 04:09:16;;;;;;;44.7;28.7;;;;;;;9.99;100;95820.59;;;;
2019/10/22 04:10:17;;;;;;;35.40001;25.75;;;;;;;9.9;100;95798.05;;;;
2019/10/22 04:11:18;;;;;;;35.40001;25.75;;;;;;;9.9;100;95798.05;;;;
2019/10/22 04:12:19;;;;;;;35.40001;25.75;;;;;;;9.9;100;95798.05;;;;
2019/10/22 04:13:20;;;;;;;35.40001;25.75;;;;;;;9.9;100;95798.05;;;;
2019/10/22 04:14:21;;;;;;;35.40001;25.75;;;;;;;9.9;100;95798.05;;;;
2019/10/22 04:15:22;;;;;;;35.40001;25.75;;;;;;;9.9;100;95798.05;;;;
2019/10/22 04:16:23;;;;;;;35.40001;25.75;;;;;;;9.9;100;95798.05;;;;
2019/10/22 04:17:25;;;;;;;35.40001;25.75;;;;;;;9.9;100;95798.05;;;;
2019/10/22 04:18:26;;;;;;;35.40001;25.75;;;;;;;9.9;100;95798.05;;;;
2019/10/22 04:19:27;;;;;;;35.40001;25.75;;;;;;;9.9;100;95798.05;;;;
2019/10/22 04:20:28;;;;;;;35.40001;25.75;;;;;;;9.9;100;95798.05;;;;
2019/10/22 04:21:29;;;;;;;32.25;23.95;;;;;;;9.7;100;95792.38;;;;
2019/10/22 04:22:30;;;;;;;32.25;23.95;;;;;;;9.7;100;95792.38;;;;
2019/10/22 04:23:32;;;;;;;32.25;23.95;;;;;;;9.7;100;95792.38;;;;
2019/10/22 04:24:33;;;;;;;32.25;23.95;;;;;;;9.7;100;95792.38;;;;
2019/10/22 04:25:34;;;;;;;32.25;23.95;;;;;;;9.7;100;95792.38;;;;
2019/10/22 04:26:35;;;;;;;32.25;23.95;;;;;;;9.7;100;95792.38;;;;
2019/10/22 04:27:36;;;;;;;32.25;23.95;;;;;;;9.7;100;95792.38;;;;
2019/10/22 04:28:37;;;;;;;32.25;23.95;;;;;;;9.7;100;95792.38;;;;
2019/10/22 04:29:39;;;;;;;32.25;23.95;;;;;;;9.7;100;95792.38;;;;
2019/10/22 04:30:40;;;;;;;32.25;23.95;;;;;;;9.7;100;95792.38;;;;
2019/10/22 04:31:41;;;;;;;42.3;28.9;;;;;;;9.66;100;95782.14;;;;
2019/10/22 04:32:42;;;;;;;42.3;28.9;;;;;;;9.66;100;95782.14;;;;
2019/10/22 04:33:43;;;;;;;42.3;28.9;;;;;;;9.66;100;95782.14;;;;
2019/10/22 04:34:44;;;;;;;42.3;28.9;;;;;;;9.66;100;95782.14;;;;
2019/10/22 04:35:45;;;;;;;42.3;28.9;;;;;;;9.66;100;95782.14;;;;
2019/10/22 04:36:46;;;;;;;42.3;28.9;;;;;;;9.66;100;95782.14;;;;
2019/10/22 04:37:47;;;;;;;42.3;28.9;;;;;;;9.66;100;95782.14;;;;
2019/10/22 04:38:48;;;;;;;42.3;28.9;;;;;;;9.66;100;95782.14;;;;
2019/10/22 04:39:50;;;;;;;42.3;28.9;;;;;;;9.66;100;95782.14;;;;
2019/10/22 04:40:51;;;;;;;42.3;28.9;;;;;;;9.66;100;95782.14;;;;
2019/10/22 04:41:52;;;;;;;42.3;28.9;;;;;;;9.66;100;95782.14;;;;
2019/10/22 04:42:53;;;;;;;46.35;32.1;;;;;;;9.79;100;95798.24;;;;
2019/10/22 04:43:54;;;;;;;46.35;32.1;;;;;;;9.79;100;95798.24;;;;
2019/10/22 04:44:55;;;;;;;46.35;32.1;;;;;;;9.79;100;95798.24;;;;
2019/10/22 04:45:56;;;;;;;46.35;32.1;;;;;;;9.79;100;95798.24;;;;
2019/10/22 04:46:58;;;;;;;46.35;32.1;;;;;;;9.79;100;95798.24;;;;
2019/10/22 04:47:59;;;;;;;46.35;32.1;;;;;;;9.79;100;95798.24;;;;
2019/10/22 04:49:00;;;;;;;46.35;32.1;;;;;;;9.79;100;95798.24;;;;
2019/10/22 04:50:01;;;;;;;46.35;32.1;;;;;;;9.79;100;95798.24;;;;
2019/10/22 04:51:03;;;;;;;46.35;32.1;;;;;;;9.79;100;95798.24;;;;
2019/10/22 04:52:04;;;;;;;46.35;32.1;;;;;;;9.79;100;95798.24;;;;
2019/10/22 04:53:05;;;;;;;44.64999;31.8;;;;;;;10.13;100;95795.19;;;;
2019/10/22 04:54:06;;;;;;;44.64999;31.8;;;;;;;10.13;100;95795.19;;;;
2019/10/22 04:55:08;;;;;;;44.64999;31.8;;;;;;;10.13;100;95795.19;;;;
2019/10/22 04:56:09;;;;;;;44.64999;31.8;;;;;;;10.13;100;95795.19;;;;
2019/10/22 04:57:10;;;;;;;44.64999;31.8;;;;;;;10.13;100;95795.19;;;;
2019/10/22 04:58:11;;;;;;;44.64999;31.8;;;;;;;10.13;100;95795.19;;;;
2019/10/22 04:59:13;;;;;;;44.64999;31.8;;;;;;;10.13;100;95795.19;;;;
2019/10/22 05:00:14;;;;;;;44.64999;31.8;;;;;;;10.13;100;95795.19;;;;
2019/10/22 05:01:15;;;;;;;44.64999;31.8;;;;;;;10.13;100;95795.19;;;;
2019/10/22 05:02:16;;;;;;;44.64999;31.8;;;;;;;10.13;100;95795.19;;;;
2019/10/22 05:03:17;;;;;;;39.8;30.3;;;;;;;10.41;100;95792.36;;;;
2019/10/22 05:04:18;;;;;;;39.8;30.3;;;;;;;10.41;100;95792.36;;;;
2019/10/22 05:05:19;;;;;;;39.8;30.3;;;;;;;10.41;100;95792.36;;;;
2019/10/22 05:06:20;;;;;;;39.8;30.3;;;;;;;10.41;100;95792.36;;;;
2019/10/22 05:07:22;;;;;;;39.8;30.3;;;;;;;10.41;100;95792.36;;;;
2019/10/22 05:08:23;;;;;;;39.8;30.3;;;;;;;10.41;100;95792.36;;;;
2019/10/22 05:09:24;;;;;;;39.8;30.3;;;;;;;10.41;100;95792.36;;;;
2019/10/22 05:10:25;;;;;;;39.8;30.3;;;;;;;10.41;100;95792.36;;;;
2019/10/22 05:11:26;;;;;;;39.8;30.3;;;;;;;10.41;100;95792.36;;;;
2019/10/22 05:12:27;;;;;;;39.8;30.3;;;;;;;10.41;100;95792.36;;;;
2019/10/22 05:13:29;;;;;;;39.8;30.3;;;;;;;10.41;100;95792.36;;;;
2019/10/22 05:14:30;;;;;;;40.55;29.4;;;;;;;10.67;100;95786.25;;;;
2019/10/22 05:15:31;;;;;;;40.55;29.4;;;;;;;10.67;100;95786.25;;;;
2019/10/22 05:16:32;;;;;;;40.55;29.4;;;;;;;10.67;100;95786.25;;;;
2019/10/22 05:17:33;;;;;;;40.55;29.4;;;;;;;10.67;100;95786.25;;;;
2019/10/22 05:18:34;;;;;;;40.55;29.4;;;;;;;10.67;100;95786.25;;;;
2019/10/22 05:19:35;;;;;;;40.55;29.4;;;;;;;10.67;100;95786.25;;;;
2019/10/22 05:20:36;;;;;;;40.55;29.4;;;;;;;10.67;100;95786.25;;;;
2019/10/22 05:21:38;;;;;;;40.55;29.4;;;;;;;10.67;100;95786.25;;;;
2019/10/22 05:22:39;;;;;;;40.55;29.4;;;;;;;10.67;100;95786.25;;;;
2019/10/22 05:23:40;;;;;;;40.55;29.4;;;;;;;10.67;100;95786.25;;;;
2019/10/22 05:24:41;;;;;;;43.3;29.95;;;;;;;10.77;100;95783.47;;;;
2019/10/22 05:25:42;;;;;;;43.3;29.95;;;;;;;10.77;100;95783.47;;;;
2019/10/22 05:26:43;;;;;;;43.3;29.95;;;;;;;10.77;100;95783.47;;;;
2019/10/22 05:27:44;;;;;;;43.3;29.95;;;;;;;10.77;100;95783.47;;;;
2019/10/22 05:28:46;;;;;;;43.3;29.95;;;;;;;10.77;100;95783.47;;;;
2019/10/22 05:29:47;;;;;;;43.3;29.95;;;;;;;10.77;100;95783.47;;;;
2019/10/22 05:30:48;;;;;;;43.3;29.95;;;;;;;10.77;100;95783.47;;;;
2019/10/22 05:31:49;;;;;;;43.3;29.95;;;;;;;10.77;100;95783.47;;;;
2019/10/22 05:32:50;;;;;;;43.3;29.95;;;;;;;10.77;100;95783.47;;;;
2019/10/22 05:33:51;;;;;;;43.3;29.95;;;;;;;10.77;100;95783.47;;;;
2019/10/22 05:34:52;;;;;;;43.3;29.95;;;;;;;10.77;100;95783.47;;;;
2019/10/22 05:35:53;;;;;;;41.25;28.95;;;;;;;10.94;100;95784.08;;;;
2019/10/22 05:36:54;;;;;;;41.25;28.95;;;;;;;10.94;100;95784.08;;;;
2019/10/22 05:37:56;;;;;;;41.25;28.95;;;;;;;10.94;100;95784.08;;;;
2019/10/22 05:38:57;;;;;;;41.25;28.95;;;;;;;10.94;100;95784.08;;;;
2019/10/22 05:39:58;;;;;;;41.25;28.95;;;;;;;10.94;100;95784.08;;;;
2019/10/22 05:40:59;;;;;;;41.25;28.95;;;;;;;10.94;100;95784.08;;;;
2019/10/22 05:42:00;;;;;;;41.25;28.95;;;;;;;10.94;100;95784.08;;;;
2019/10/22 05:43:01;;;;;;;41.25;28.95;;;;;;;10.94;100;95784.08;;;;
2019/10/22 05:44:03;;;;;;;41.25;28.95;;;;;;;10.94;100;95784.08;;;;
2019/10/22 05:45:04;;;;;;;41.25;28.95;;;;;;;10.94;100;95784.08;;;;
2019/10/22 05:46:06;;;;;;;37.7;27.4;;;;;;;10.99;100;95795.45;;;;
2019/10/22 05:47:07;;;;;;;37.7;27.4;;;;;;;10.99;100;95795.45;;;;
2019/10/22 05:48:08;;;;;;;37.7;27.4;;;;;;;10.99;100;95795.45;;;;
2019/10/22 05:49:09;;;;;;;37.7;27.4;;;;;;;10.99;100;95795.45;;;;
2019/10/22 05:50:10;;;;;;;37.7;27.4;;;;;;;10.99;100;95795.45;;;;
2019/10/22 05:51:12;;;;;;;37.7;27.4;;;;;;;10.99;100;95795.45;;;;
2019/10/22 05:52:13;;;;;;;37.7;27.4;;;;;;;10.99;100;95795.45;;;;
2019/10/22 05:53:14;;;;;;;37.7;27.4;;;;;;;10.99;100;95795.45;;;;
2019/10/22 05:54:15;;;;;;;37.7;27.4;;;;;;;10.99;100;95795.45;;;;
2019/10/22 05:55:16;;;;;;;37.7;27.4;;;;;;;10.99;100;95795.45;;;;
2019/10/22 05:56:18;;;;;;;40.7;29.25;;;;;;;11.18;100;95799.39;;;;
2019/10/22 05:57:19;;;;;;;40.7;29.25;;;;;;;11.18;100;95799.39;;;;
2019/10/22 05:58:20;;;;;;;40.7;29.25;;;;;;;11.18;100;95799.39;;;;
2019/10/22 05:59:21;;;;;;;40.7;29.25;;;;;;;11.18;100;95799.39;;;;
2019/10/22 06:00:22;;;;;;;40.7;29.25;;;;;;;11.18;100;95799.39;;;;
2019/10/22 06:01:23;;;;;;;40.7;29.25;;;;;;;11.18;100;95799.39;;;;
2019/10/22 06:02:24;;;;;;;40.7;29.25;;;;;;;11.18;100;95799.39;;;;
2019/10/22 06:03:25;;;;;;;40.7;29.25;;;;;;;11.18;100;95799.39;;;;
2019/10/22 06:04:26;;;;;;;40.7;29.25;;;;;;;11.18;100;95799.39;;;;
2019/10/22 06:05:28;;;;;;;40.7;29.25;;;;;;;11.18;100;95799.39;;;;
2019/10/22 06:06:29;;;;;;;40.7;29.25;;;;;;;11.18;100;95799.39;;;;
2019/10/22 06:07:30;;;;;;;44;31.95;;;;;;;11.36;100;95790.84;;;;
2019/10/22 06:08:31;;;;;;;44;31.95;;;;;;;11.36;100;95790.84;;;;
2019/10/22 06:09:32;;;;;;;44;31.95;;;;;;;11.36;100;95790.84;;;;